sensor_id;sensor_type;location;lat;lon;timestamp;pressure;altitude;pressure_sealevel;temperature;humidity
15678;BME280;7939;50.814;6.368;2023-02-19T00:01:18;100197.97;;;13.19;71.42
15678;BME280;7939;50.814;6.368;2023-02-19T00:03:48;100199.72;;;13.20;70.99
15678;BME280;7939;50.814;6.368;2023-02-19T00:06:17;100201.44;;;13.15;70.61
15678;BME280;7939;50.814;6.368;2023-02-19T00:08:44;100203.97;;;13.17;70.70
15678;BME280;7939;50.814;6.368;2023-02-19T00:11:12;100204.84;;;13.17;71.33
15678;BME280;7939;50.814;6.368;2023-02-19T00:13:40;100205.72;;;13.15;70.41
15678;BME280;7939;50.814;6.368;2023-02-19T00:16:12;100206.56;;;13.15;70.79
15678;BME280;7939;50.814;6.368;2023-02-19T00:18:39;100208.28;;;13.15;71.02
15678;BME280;7939;50.814;6.368;2023-02-19T00:21:06;100207.41;;;13.14;71.24
15678;BME280;7939;50.814;6.368;2023-02-19T00:23:33;100193.72;;;13.15;70.49
15678;BME280;7939;50.814;6.368;2023-02-19T00:26:01;100199.72;;;13.11;71.33
15678;BME280;7939;50.814;6.368;2023-02-19T00:28:28;100197.16;;;13.11;71.63
15678;BME280;7939;50.814;6.368;2023-02-19T00:30:54;100192.03;;;13.11;71.78
15678;BME280;7939;50.814;6.368;2023-02-19T00:33:22;100199.72;;;13.14;71.43
15678;BME280;7939;50.814;6.368;2023-02-19T00:35:49;100198.00;;;13.13;70.98
15678;BME280;7939;50.814;6.368;2023-02-19T00:38:15;100185.16;;;13.13;70.62
15678;BME280;7939;50.814;6.368;2023-02-19T00:40:42;100192.03;;;13.14;71.71
15678;BME280;7939;50.814;6.368;2023-02-19T00:43:09;100180.03;;;13.12;71.19
15678;BME280;7939;50.814;6.368;2023-02-19T00:45:36;100184.31;;;13.14;70.63
15678;BME280;7939;50.814;6.368;2023-02-19T00:48:02;100198.00;;;13.12;71.53
15678;BME280;7939;50.814;6.368;2023-02-19T00:50:30;100181.75;;;13.13;70.83
15678;BME280;7939;50.814;6.368;2023-02-19T00:52:57;100184.31;;;13.11;70.63
15678;BME280;7939;50.814;6.368;2023-02-19T00:55:23;100188.59;;;13.12;71.55
15678;BME280;7939;50.814;6.368;2023-02-19T00:57:50;100165.50;;;13.14;70.43
15678;BME280;7939;50.814;6.368;2023-02-19T01:00:17;100171.47;;;13.13;71.22
15678;BME280;7939;50.814;6.368;2023-02-19T01:02:43;100170.66;;;13.11;71.08
15678;BME280;7939;50.814;6.368;2023-02-19T01:05:10;100167.19;;;13.13;70.85
15678;BME280;7939;50.814;6.368;2023-02-19T01:07:38;100172.34;;;13.13;71.52
15678;BME280;7939;50.814;6.368;2023-02-19T01:10:05;100162.06;;;13.12;71.48
15678;BME280;7939;50.814;6.368;2023-02-19T01:12:32;100172.34;;;13.13;70.61
15678;BME280;7939;50.814;6.368;2023-02-19T01:14:59;100168.06;;;13.11;71.27
15678;BME280;7939;50.814;6.368;2023-02-19T01:17:25;100162.97;;;13.08;70.60
15678;BME280;7939;50.814;6.368;2023-02-19T01:19:52;100168.94;;;13.10;70.82
15678;BME280;7939;50.814;6.368;2023-02-19T01:22:19;100168.94;;;13.10;70.73
15678;BME280;7939;50.814;6.368;2023-02-19T01:24:47;100162.09;;;13.06;70.98
15678;BME280;7939;50.814;6.368;2023-02-19T01:27:13;100156.97;;;13.07;71.23
15678;BME280;7939;50.814;6.368;2023-02-19T01:29:41;100166.38;;;13.05;71.35
15678;BME280;7939;50.814;6.368;2023-02-19T01:32:08;100167.25;;;13.09;71.56
15678;BME280;7939;50.814;6.368;2023-02-19T01:34:34;100154.41;;;13.06;71.31
15678;BME280;7939;50.814;6.368;2023-02-19T01:37:01;100162.09;;;13.06;71.21
15678;BME280;7939;50.814;6.368;2023-02-19T01:39:27;100164.66;;;13.07;70.72
15678;BME280;7939;50.814;6.368;2023-02-19T01:41:56;100159.53;;;13.06;70.69
15678;BME280;7939;50.814;6.368;2023-02-19T01:47:26;100181.75;;;13.07;71.63
15678;BME280;7939;50.814;6.368;2023-02-19T01:49:55;100174.94;;;13.06;71.54
15678;BME280;7939;50.814;6.368;2023-02-19T01:52:25;100171.53;;;13.05;70.68
15678;BME280;7939;50.814;6.368;2023-02-19T01:54:55;100174.06;;;13.07;71.11
15678;BME280;7939;50.814;6.368;2023-02-19T01:57:25;100179.19;;;13.07;71.46
15678;BME280;7939;50.814;6.368;2023-02-19T01:59:55;100184.34;;;13.05;71.82
15678;BME280;7939;50.814;6.368;2023-02-19T02:02:24;100183.50;;;13.05;71.52
15678;BME280;7939;50.814;6.368;2023-02-19T02:04:53;100180.06;;;13.04;71.67
15678;BME280;7939;50.814;6.368;2023-02-19T02:07:20;100180.94;;;13.05;70.84
15678;BME280;7939;50.814;6.368;2023-02-19T02:10:05;100186.06;;;13.05;70.72
15678;BME280;7939;50.814;6.368;2023-02-19T02:12:50;100180.91;;;13.06;70.88
15678;BME280;7939;50.814;6.368;2023-02-19T02:15:18;100181.78;;;13.05;71.51
15678;BME280;7939;50.814;6.368;2023-02-19T02:17:52;100179.22;;;13.05;70.19
15678;BME280;7939;50.814;6.368;2023-02-19T02:20:36;100174.94;;;13.04;70.64
15678;BME280;7939;50.814;6.368;2023-02-19T02:23:15;100182.66;;;13.04;71.42
15678;BME280;7939;50.814;6.368;2023-02-19T02:25:58;100184.34;;;13.07;70.60
15678;BME280;7939;50.814;6.368;2023-02-19T02:28:49;100178.38;;;13.05;71.22
15678;BME280;7939;50.814;6.368;2023-02-19T02:31:24;100177.53;;;13.01;70.38
15678;BME280;7939;50.814;6.368;2023-02-19T02:33:58;100178.38;;;13.08;70.92
15678;BME280;7939;50.814;6.368;2023-02-19T02:36:28;100172.38;;;13.04;70.98
15678;BME280;7939;50.814;6.368;2023-02-19T02:38:57;100168.09;;;13.05;70.30
15678;BME280;7939;50.814;6.368;2023-02-19T02:41:25;100174.06;;;13.07;70.41
15678;BME280;7939;50.814;6.368;2023-02-19T02:43:51;100177.47;;;13.07;71.33
15678;BME280;7939;50.814;6.368;2023-02-19T02:46:24;100185.19;;;13.06;70.87
15678;BME280;7939;50.814;6.368;2023-02-19T02:48:55;100177.47;;;13.07;70.94
15678;BME280;7939;50.814;6.368;2023-02-19T02:51:25;100175.81;;;13.03;70.40
15678;BME280;7939;50.814;6.368;2023-02-19T02:53:56;100180.94;;;13.03;70.59
15678;BME280;7939;50.814;6.368;2023-02-19T02:56:43;100184.34;;;13.04;69.90
15678;BME280;7939;50.814;6.368;2023-02-19T02:59:13;100186.06;;;13.03;70.20
15678;BME280;7939;50.814;6.368;2023-02-19T03:01:44;100187.78;;;13.03;70.91
15678;BME280;7939;50.814;6.368;2023-02-19T03:04:32;100181.81;;;13.02;71.16
15678;BME280;7939;50.814;6.368;2023-02-19T03:07:04;100186.09;;;13.02;70.94
15678;BME280;7939;50.814;6.368;2023-02-19T03:09:36;100199.75;;;12.99;70.25
15678;BME280;7939;50.814;6.368;2023-02-19T03:12:09;100197.19;;;13.01;70.96
15678;BME280;7939;50.814;6.368;2023-02-19T03:14:57;100192.91;;;13.03;70.36
15678;BME280;7939;50.814;6.368;2023-02-19T03:17:49;100196.34;;;13.02;69.78
15678;BME280;7939;50.814;6.368;2023-02-19T03:20:37;100204.03;;;13.02;70.45
15678;BME280;7939;50.814;6.368;2023-02-19T03:23:05;100208.31;;;13.01;69.88
15678;BME280;7939;50.814;6.368;2023-02-19T03:25:35;100210.88;;;12.98;69.96
15678;BME280;7939;50.814;6.368;2023-02-19T03:28:22;100218.56;;;12.98;70.47
15678;BME280;7939;50.814;6.368;2023-02-19T03:31:12;100215.16;;;12.98;69.84
15678;BME280;7939;50.814;6.368;2023-02-19T03:33:44;100221.16;;;12.98;70.01
15678;BME280;7939;50.814;6.368;2023-02-19T03:36:13;100218.59;;;12.96;70.64
15678;BME280;7939;50.814;6.368;2023-02-19T03:38:45;100219.44;;;12.99;70.62
15678;BME280;7939;50.814;6.368;2023-02-19T03:41:18;100225.41;;;12.99;70.35
15678;BME280;7939;50.814;6.368;2023-02-19T03:43:51;100216.88;;;12.99;70.11
15678;BME280;7939;50.814;6.368;2023-02-19T03:46:23;100228.84;;;12.98;69.93
15678;BME280;7939;50.814;6.368;2023-02-19T03:48:55;100229.69;;;13.00;70.59
15678;BME280;7939;50.814;6.368;2023-02-19T03:51:29;100234.81;;;12.99;69.90
15678;BME280;7939;50.814;6.368;2023-02-19T03:54:08;100241.69;;;13.01;70.41
15678;BME280;7939;50.814;6.368;2023-02-19T03:56:39;100240.78;;;13.01;70.40
15678;BME280;7939;50.814;6.368;2023-02-19T03:59:10;100243.38;;;12.99;70.40
15678;BME280;7939;50.814;6.368;2023-02-19T04:01:42;100251.06;;;12.99;70.35
15678;BME280;7939;50.814;6.368;2023-02-19T04:04:15;100239.94;;;13.00;69.24
15678;BME280;7939;50.814;6.368;2023-02-19T04:06:46;100234.81;;;13.00;69.74
15678;BME280;7939;50.814;6.368;2023-02-19T04:09:18;100236.53;;;13.01;69.55
15678;BME280;7939;50.814;6.368;2023-02-19T04:11:46;100221.97;;;13.00;69.97
15678;BME280;7939;50.814;6.368;2023-02-19T04:14:18;100227.13;;;13.00;69.54
15678;BME280;7939;50.814;6.368;2023-02-19T04:16:51;100243.34;;;13.01;69.60
15678;BME280;7939;50.814;6.368;2023-02-19T04:19:23;100254.50;;;12.98;69.79
15678;BME280;7939;50.814;6.368;2023-02-19T04:21:52;100255.34;;;12.99;69.78
15678;BME280;7939;50.814;6.368;2023-02-19T04:24:23;100264.75;;;12.96;69.62
15678;BME280;7939;50.814;6.368;2023-02-19T04:26:52;100261.34;;;12.98;68.99
15678;BME280;7939;50.814;6.368;2023-02-19T04:29:19;100264.75;;;12.98;69.19
15678;BME280;7939;50.814;6.368;2023-02-19T04:31:46;100265.63;;;12.95;69.38
15678;BME280;7939;50.814;6.368;2023-02-19T04:34:12;100263.03;;;12.99;70.22
15678;BME280;7939;50.814;6.368;2023-02-19T04:36:40;100269.91;;;12.95;68.86
15678;BME280;7939;50.814;6.368;2023-02-19T04:39:07;100267.31;;;12.93;69.33
15678;BME280;7939;50.814;6.368;2023-02-19T04:41:33;100269.88;;;12.93;69.63
15678;BME280;7939;50.814;6.368;2023-02-19T04:44:00;100269.91;;;12.92;69.41
15678;BME280;7939;50.814;6.368;2023-02-19T04:46:26;100284.44;;;12.93;69.20
15678;BME280;7939;50.814;6.368;2023-02-19T04:48:53;100279.28;;;12.93;70.53
15678;BME280;7939;50.814;6.368;2023-02-19T04:51:19;100283.59;;;12.89;69.78
15678;BME280;7939;50.814;6.368;2023-02-19T04:53:47;100288.72;;;12.92;69.82
15678;BME280;7939;50.814;6.368;2023-02-19T04:56:15;100292.13;;;12.91;69.55
15678;BME280;7939;50.814;6.368;2023-02-19T04:58:43;100302.41;;;12.91;69.44
15678;BME280;7939;50.814;6.368;2023-02-19T05:01:10;100304.97;;;12.91;69.74
15678;BME280;7939;50.814;6.368;2023-02-19T05:03:37;100304.09;;;12.91;69.56
15678;BME280;7939;50.814;6.368;2023-02-19T05:06:05;100304.94;;;12.88;70.23
15678;BME280;7939;50.814;6.368;2023-02-19T05:08:33;100309.25;;;12.89;68.92
15678;BME280;7939;50.814;6.368;2023-02-19T05:11:03;100311.81;;;12.89;69.24
15678;BME280;7939;50.814;6.368;2023-02-19T05:13:30;100313.50;;;12.87;69.27
15678;BME280;7939;50.814;6.368;2023-02-19T05:15:58;100316.06;;;12.87;68.77
15678;BME280;7939;50.814;6.368;2023-02-19T05:18:26;100320.34;;;12.88;69.04
15678;BME280;7939;50.814;6.368;2023-02-19T05:20:53;100323.78;;;12.90;69.70
15678;BME280;7939;50.814;6.368;2023-02-19T05:23:20;100334.03;;;12.90;69.71
15678;BME280;7939;50.814;6.368;2023-02-19T05:25:46;100328.91;;;12.84;69.33
15678;BME280;7939;50.814;6.368;2023-02-19T05:28:14;100338.31;;;12.85;69.68
15678;BME280;7939;50.814;6.368;2023-02-19T05:30:45;100331.47;;;12.86;70.02
15678;BME280;7939;50.814;6.368;2023-02-19T05:33:12;100339.16;;;12.86;68.85
15678;BME280;7939;50.814;6.368;2023-02-19T05:35:41;100340.00;;;12.86;68.91
15678;BME280;7939;50.814;6.368;2023-02-19T05:38:07;100348.56;;;12.87;69.09
15678;BME280;7939;50.814;6.368;2023-02-19T05:40:34;100351.97;;;12.86;69.09
15678;BME280;7939;50.814;6.368;2023-02-19T05:43:01;100357.97;;;12.86;69.80
15678;BME280;7939;50.814;6.368;2023-02-19T05:45:29;100351.97;;;12.86;69.11
15678;BME280;7939;50.814;6.368;2023-02-19T05:47:56;100356.25;;;12.87;69.85
15678;BME280;7939;50.814;6.368;2023-02-19T05:50:23;100366.53;;;12.84;68.98
15678;BME280;7939;50.814;6.368;2023-02-19T05:52:49;100363.94;;;12.88;69.86
15678;BME280;7939;50.814;6.368;2023-02-19T05:55:16;100362.25;;;12.89;69.21
15678;BME280;7939;50.814;6.368;2023-02-19T05:57:44;100375.94;;;12.89;68.85
15678;BME280;7939;50.814;6.368;2023-02-19T06:00:13;100379.34;;;12.87;68.73
15678;BME280;7939;50.814;6.368;2023-02-19T06:02:42;100376.78;;;12.87;69.55
15678;BME280;7939;50.814;6.368;2023-02-19T06:05:09;100371.66;;;12.87;68.75
15678;BME280;7939;50.814;6.368;2023-02-19T06:07:36;100378.47;;;12.88;68.70
15678;BME280;7939;50.814;6.368;2023-02-19T06:10:04;100371.66;;;12.87;69.74
15678;BME280;7939;50.814;6.368;2023-02-19T06:12:31;100378.50;;;12.89;69.17
15678;BME280;7939;50.814;6.368;2023-02-19T06:14:57;100374.22;;;12.87;68.52
15678;BME280;7939;50.814;6.368;2023-02-19T06:17:24;100387.03;;;12.88;68.87
15678;BME280;7939;50.814;6.368;2023-02-19T06:19:52;100384.47;;;12.87;68.47
15678;BME280;7939;50.814;6.368;2023-02-19T06:22:19;100382.75;;;12.87;68.75
15678;BME280;7939;50.814;6.368;2023-02-19T06:24:46;100387.03;;;12.84;68.48
15678;BME280;7939;50.814;6.368;2023-02-19T06:27:13;100398.16;;;12.84;68.79
15678;BME280;7939;50.814;6.368;2023-02-19T06:29:40;100387.91;;;12.83;69.07
15678;BME280;7939;50.814;6.368;2023-02-19T06:32:07;100386.16;;;12.82;69.08
15678;BME280;7939;50.814;6.368;2023-02-19T06:34:34;100395.59;;;12.83;69.46
15678;BME280;7939;50.814;6.368;2023-02-19T06:37:02;100387.03;;;12.78;68.49
15678;BME280;7939;50.814;6.368;2023-02-19T06:39:28;100392.19;;;12.82;69.34
15678;BME280;7939;50.814;6.368;2023-02-19T06:41:55;100389.59;;;12.81;68.42
15678;BME280;7939;50.814;6.368;2023-02-19T06:44:22;100381.91;;;12.79;68.74
15678;BME280;7939;50.814;6.368;2023-02-19T06:46:49;100390.44;;;12.81;69.69
15678;BME280;7939;50.814;6.368;2023-02-19T06:49:16;100393.88;;;12.82;68.66
15678;BME280;7939;50.814;6.368;2023-02-19T06:51:43;100399.88;;;12.82;69.61
15678;BME280;7939;50.814;6.368;2023-02-19T06:54:11;100407.56;;;12.84;68.91
15678;BME280;7939;50.814;6.368;2023-02-19T06:56:39;100402.44;;;12.84;69.13
15678;BME280;7939;50.814;6.368;2023-02-19T06:59:09;100422.09;;;12.83;69.10
15678;BME280;7939;50.814;6.368;2023-02-19T07:01:36;100426.38;;;12.83;67.80
15678;BME280;7939;50.814;6.368;2023-02-19T07:04:04;100429.78;;;12.82;69.15
15678;BME280;7939;50.814;6.368;2023-02-19T07:06:32;100428.06;;;12.81;68.47
15678;BME280;7939;50.814;6.368;2023-02-19T07:09:00;100434.91;;;12.80;68.38
15678;BME280;7939;50.814;6.368;2023-02-19T07:11:30;100433.22;;;12.82;68.73
15678;BME280;7939;50.814;6.368;2023-02-19T07:13:58;100448.59;;;12.78;68.82
15678;BME280;7939;50.814;6.368;2023-02-19T07:16:25;100443.47;;;12.79;69.09
15678;BME280;7939;50.814;6.368;2023-02-19T07:18:55;100453.72;;;12.81;68.90
15678;BME280;7939;50.814;6.368;2023-02-19T07:21:22;100451.16;;;12.81;68.00
15678;BME280;7939;50.814;6.368;2023-02-19T07:23:48;100469.09;;;12.79;68.31
15678;BME280;7939;50.814;6.368;2023-02-19T07:26:16;100469.97;;;12.77;68.04
15678;BME280;7939;50.814;6.368;2023-02-19T07:28:47;100472.53;;;12.77;68.62
15678;BME280;7939;50.814;6.368;2023-02-19T07:31:15;100469.97;;;12.78;68.68
15678;BME280;7939;50.814;6.368;2023-02-19T07:33:42;100475.06;;;12.75;68.37
15678;BME280;7939;50.814;6.368;2023-02-19T07:36:10;100481.91;;;12.75;68.29
15678;BME280;7939;50.814;6.368;2023-02-19T07:38:36;100470.81;;;12.73;69.13
15678;BME280;7939;50.814;6.368;2023-02-19T07:41:04;100485.34;;;12.75;69.39
15678;BME280;7939;50.814;6.368;2023-02-19T07:43:32;100493.88;;;12.73;68.55
15678;BME280;7939;50.814;6.368;2023-02-19T07:46:02;100500.72;;;12.75;68.33
15678;BME280;7939;50.814;6.368;2023-02-19T07:48:29;100499.00;;;12.74;69.14
15678;BME280;7939;50.814;6.368;2023-02-19T07:50:58;100503.28;;;12.75;69.14
15678;BME280;7939;50.814;6.368;2023-02-19T07:53:25;100505.84;;;12.75;68.25
15678;BME280;7939;50.814;6.368;2023-02-19T07:55:52;100514.44;;;12.77;68.40
15678;BME280;7939;50.814;6.368;2023-02-19T07:58:19;100513.53;;;12.75;68.19
15678;BME280;7939;50.814;6.368;2023-02-19T08:00:45;100520.41;;;12.78;67.98
15678;BME280;7939;50.814;6.368;2023-02-19T08:03:13;100514.44;;;12.77;67.77
15678;BME280;7939;50.814;6.368;2023-02-19T08:05:41;100514.41;;;12.74;68.12
15678;BME280;7939;50.814;6.368;2023-02-19T08:08:09;100524.66;;;12.76;68.72
15678;BME280;7939;50.814;6.368;2023-02-19T08:10:36;100530.66;;;12.78;68.70
15678;BME280;7939;50.814;6.368;2023-02-19T08:13:20;100538.34;;;12.75;67.82
15678;BME280;7939;50.814;6.368;2023-02-19T08:15:52;100539.22;;;12.77;68.44
15678;BME280;7939;50.814;6.368;2023-02-19T08:18:22;100538.38;;;12.78;68.56
15678;BME280;7939;50.814;6.368;2023-02-19T08:20:49;100548.63;;;12.76;68.29
15678;BME280;7939;50.814;6.368;2023-02-19T08:23:16;100562.31;;;12.77;68.20
15678;BME280;7939;50.814;6.368;2023-02-19T08:25:45;100555.47;;;12.77;68.02
15678;BME280;7939;50.814;6.368;2023-02-19T08:28:12;100562.28;;;12.74;68.31
15678;BME280;7939;50.814;6.368;2023-02-19T08:30:40;100562.31;;;12.78;68.56
15678;BME280;7939;50.814;6.368;2023-02-19T08:33:09;100569.97;;;12.75;68.53
15678;BME280;7939;50.814;6.368;2023-02-19T08:35:38;100563.16;;;12.79;68.77
15678;BME280;7939;50.814;6.368;2023-02-19T08:38:06;100563.16;;;12.79;67.30
15678;BME280;7939;50.814;6.368;2023-02-19T08:40:33;100570.84;;;12.77;68.61
15678;BME280;7939;50.814;6.368;2023-02-19T08:43:03;100571.69;;;12.75;68.00
15678;BME280;7939;50.814;6.368;2023-02-19T08:45:30;100574.28;;;12.76;68.28
15678;BME280;7939;50.814;6.368;2023-02-19T08:47:57;100568.25;;;12.76;68.62
15678;BME280;7939;50.814;6.368;2023-02-19T08:50:24;100567.44;;;12.77;68.30
15678;BME280;7939;50.814;6.368;2023-02-19T08:52:53;100574.28;;;12.78;67.56
15678;BME280;7939;50.814;6.368;2023-02-19T08:55:19;100579.41;;;12.78;67.45
15678;BME280;7939;50.814;6.368;2023-02-19T08:57:46;100581.94;;;12.75;67.73
15678;BME280;7939;50.814;6.368;2023-02-19T09:00:13;100581.06;;;12.76;67.70
15678;BME280;7939;50.814;6.368;2023-02-19T09:02:40;100578.50;;;12.76;68.31
15678;BME280;7939;50.814;6.368;2023-02-19T09:05:07;100587.06;;;12.75;68.57
15678;BME280;7939;50.814;6.368;2023-02-19T09:07:34;100583.69;;;12.77;68.48
15678;BME280;7939;50.814;6.368;2023-02-19T09:10:02;100587.09;;;12.78;68.99
15678;BME280;7939;50.814;6.368;2023-02-19T09:12:29;100583.69;;;12.77;68.03
15678;BME280;7939;50.814;6.368;2023-02-19T09:14:57;100587.94;;;12.77;68.67
15678;BME280;7939;50.814;6.368;2023-02-19T09:17:24;100605.03;;;12.79;68.14
15678;BME280;7939;50.814;6.368;2023-02-19T09:19:51;100593.06;;;12.78;68.32
15678;BME280;7939;50.814;6.368;2023-02-19T09:22:17;100605.03;;;12.78;68.42
15678;BME280;7939;50.814;6.368;2023-02-19T09:24:44;100597.34;;;12.79;68.60
15678;BME280;7939;50.814;6.368;2023-02-19T09:27:15;100599.91;;;12.81;68.47
15678;BME280;7939;50.814;6.368;2023-02-19T09:29:42;100606.75;;;12.80;67.34
15678;BME280;7939;50.814;6.368;2023-02-19T09:32:10;100600.78;;;12.80;67.49
15678;BME280;7939;50.814;6.368;2023-02-19T09:34:36;100616.16;;;12.81;67.99
15678;BME280;7939;50.814;6.368;2023-02-19T09:37:04;100611.91;;;12.83;68.56
15678;BME280;7939;50.814;6.368;2023-02-19T09:39:31;100625.59;;;12.82;67.79
15678;BME280;7939;50.814;6.368;2023-02-19T09:42:02;100621.31;;;12.84;68.20
15678;BME280;7939;50.814;6.368;2023-02-19T09:44:32;100619.59;;;12.85;68.07
15678;BME280;7939;50.814;6.368;2023-02-19T09:47:00;100621.31;;;12.86;67.91
15678;BME280;7939;50.814;6.368;2023-02-19T09:49:29;100630.72;;;12.87;68.29
15678;BME280;7939;50.814;6.368;2023-02-19T09:51:59;100635.84;;;12.88;68.00
15678;BME280;7939;50.814;6.368;2023-02-19T09:54:29;100632.44;;;12.85;68.09
15678;BME280;7939;50.814;6.368;2023-02-19T09:57:00;100640.13;;;12.85;67.75
15678;BME280;7939;50.814;6.368;2023-02-19T09:59:31;100631.56;;;12.86;68.23
15678;BME280;7939;50.814;6.368;2023-02-19T10:02:04;100646.09;;;12.88;69.10
15678;BME280;7939;50.814;6.368;2023-02-19T10:04:35;100641.84;;;12.87;68.32
15678;BME280;7939;50.814;6.368;2023-02-19T10:07:02;100647.81;;;12.86;69.09
15678;BME280;7939;50.814;6.368;2023-02-19T10:09:29;100652.13;;;12.89;68.55
15678;BME280;7939;50.814;6.368;2023-02-19T10:11:58;100652.13;;;12.92;69.36
15678;BME280;7939;50.814;6.368;2023-02-19T10:14:29;100648.72;;;12.91;68.13
15678;BME280;7939;50.814;6.368;2023-02-19T10:17:03;100662.38;;;12.90;69.23
15678;BME280;7939;50.814;6.368;2023-02-19T10:19:31;100660.69;;;12.92;68.30
15678;BME280;7939;50.814;6.368;2023-02-19T10:21:58;100662.38;;;12.92;68.62
15678;BME280;7939;50.814;6.368;2023-02-19T10:24:28;100673.50;;;12.94;69.09
15678;BME280;7939;50.814;6.368;2023-02-19T10:26:55;100686.34;;;12.94;69.05
15678;BME280;7939;50.814;6.368;2023-02-19T10:29:22;100688.91;;;12.94;68.50
15678;BME280;7939;50.814;6.368;2023-02-19T10:32:14;100691.47;;;12.91;68.77
15678;BME280;7939;50.814;6.368;2023-02-19T10:34:43;100693.16;;;12.92;69.12
15678;BME280;7939;50.814;6.368;2023-02-19T10:37:12;100693.22;;;12.95;68.96
15678;BME280;7939;50.814;6.368;2023-02-19T10:39:41;100686.34;;;12.94;68.38
15678;BME280;7939;50.814;6.368;2023-02-19T10:42:17;100696.63;;;12.95;69.00
15678;BME280;7939;50.814;6.368;2023-02-19T10:44:46;100695.78;;;12.95;68.55
15678;BME280;7939;50.814;6.368;2023-02-19T10:47:18;100708.59;;;12.96;68.63
15678;BME280;7939;50.814;6.368;2023-02-19T10:49:47;100706.88;;;12.95;69.16
15678;BME280;7939;50.814;6.368;2023-02-19T10:52:19;100722.28;;;12.95;68.86
15678;BME280;7939;50.814;6.368;2023-02-19T10:54:49;100721.38;;;12.93;68.59
15678;BME280;7939;50.814;6.368;2023-02-19T10:57:24;100724.00;;;12.95;69.12
15678;BME280;7939;50.814;6.368;2023-02-19T10:59:56;100729.97;;;12.97;69.09
15678;BME280;7939;50.814;6.368;2023-02-19T11:02:27;100733.41;;;12.99;68.75
15678;BME280;7939;50.814;6.368;2023-02-19T11:05:05;100737.69;;;12.97;68.71
15678;BME280;7939;50.814;6.368;2023-02-19T11:07:32;100740.25;;;12.97;68.41
15678;BME280;7939;50.814;6.368;2023-02-19T11:09:59;100742.81;;;12.99;69.03
15678;BME280;7939;50.814;6.368;2023-02-19T11:12:27;100749.66;;;13.00;68.62
15678;BME280;7939;50.814;6.368;2023-02-19T11:14:55;100743.66;;;12.98;68.95
15678;BME280;7939;50.814;6.368;2023-02-19T11:17:23;100739.38;;;12.98;68.18
15678;BME280;7939;50.814;6.368;2023-02-19T11:19:53;100748.78;;;12.99;68.72
15678;BME280;7939;50.814;6.368;2023-02-19T11:22:29;100756.50;;;12.99;68.93
15678;BME280;7939;50.814;6.368;2023-02-19T11:25:00;100759.91;;;13.00;68.56
15678;BME280;7939;50.814;6.368;2023-02-19T11:27:29;100764.19;;;13.01;69.17
15678;BME280;7939;50.814;6.368;2023-02-19T11:30:20;100759.06;;;12.99;68.27
15678;BME280;7939;50.814;6.368;2023-02-19T11:32:49;100770.19;;;13.00;69.59
15678;BME280;7939;50.814;6.368;2023-02-19T11:35:20;100767.66;;;13.01;68.81
15678;BME280;7939;50.814;6.368;2023-02-19T11:37:58;100760.75;;;12.99;68.71
15678;BME280;7939;50.814;6.368;2023-02-19T11:40:39;100762.50;;;13.01;69.06
15678;BME280;7939;50.814;6.368;2023-02-19T11:43:23;100764.19;;;13.01;68.78
15678;BME280;7939;50.814;6.368;2023-02-19T11:46:01;100753.94;;;13.01;69.22
15678;BME280;7939;50.814;6.368;2023-02-19T11:48:45;100747.13;;;13.01;69.61
15678;BME280;7939;50.814;6.368;2023-02-19T11:51:32;100744.56;;;13.03;69.56
15678;BME280;7939;50.814;6.368;2023-02-19T11:54:13;100741.13;;;13.02;69.16
15678;BME280;7939;50.814;6.368;2023-02-19T11:56:42;100746.25;;;13.04;69.34
15678;BME280;7939;50.814;6.368;2023-02-19T11:59:18;100739.41;;;13.01;68.67
15678;BME280;7939;50.814;6.368;2023-02-19T12:02:05;100736.00;;;13.04;68.64
15678;BME280;7939;50.814;6.368;2023-02-19T12:05:06;100730.88;;;13.05;69.42
15678;BME280;7939;50.814;6.368;2023-02-19T12:10:56;100738.56;;;13.04;68.62
15678;BME280;7939;50.814;6.368;2023-02-19T12:13:32;100737.72;;;13.05;69.00
15678;BME280;7939;50.814;6.368;2023-02-19T12:16:18;100731.72;;;13.04;68.27
15678;BME280;7939;50.814;6.368;2023-02-19T12:19:08;100727.44;;;13.03;69.02
15678;BME280;7939;50.814;6.368;2023-02-19T12:21:46;100725.75;;;13.04;69.29
15678;BME280;7939;50.814;6.368;2023-02-19T12:24:40;100730.88;;;13.05;68.65
15678;BME280;7939;50.814;6.368;2023-02-19T12:27:21;100728.31;;;13.05;69.88
15678;BME280;7939;50.814;6.368;2023-02-19T12:30:02;100723.16;;;13.07;68.77
15678;BME280;7939;50.814;6.368;2023-02-19T12:32:42;100731.72;;;13.06;69.71
15678;BME280;7939;50.814;6.368;2023-02-19T12:35:27;100729.16;;;13.07;68.81
15678;BME280;7939;50.814;6.368;2023-02-19T12:38:11;100727.47;;;13.08;68.61
15678;BME280;7939;50.814;6.368;2023-02-19T12:41:04;100724.06;;;13.09;68.80
15678;BME280;7939;50.814;6.368;2023-02-19T12:43:39;100733.47;;;13.08;68.95
15678;BME280;7939;50.814;6.368;2023-02-19T12:46:12;100738.59;;;13.08;69.51
15678;BME280;7939;50.814;6.368;2023-02-19T12:48:47;100741.16;;;13.08;68.42
15678;BME280;7939;50.814;6.368;2023-02-19T12:51:20;100736.03;;;13.11;68.88
15678;BME280;7939;50.814;6.368;2023-02-19T12:53:52;100733.47;;;13.10;68.47
15678;BME280;7939;50.814;6.368;2023-02-19T12:56:24;100744.59;;;13.10;69.43
15678;BME280;7939;50.814;6.368;2023-02-19T12:58:54;100745.47;;;13.14;68.94
15678;BME280;7939;50.814;6.368;2023-02-19T13:01:25;100732.59;;;13.11;67.97
15678;BME280;7939;50.814;6.368;2023-02-19T13:04:13;100730.03;;;13.11;69.51
15678;BME280;7939;50.814;6.368;2023-02-19T13:06:44;100732.59;;;13.12;68.54
15678;BME280;7939;50.814;6.368;2023-02-19T13:09:14;100741.16;;;13.10;68.23
15678;BME280;7939;50.814;6.368;2023-02-19T13:11:48;100737.75;;;13.08;68.37
15678;BME280;7939;50.814;6.368;2023-02-19T13:14:20;100742.03;;;13.09;67.82
15678;BME280;7939;50.814;6.368;2023-02-19T13:16:54;100738.59;;;13.10;67.94
15678;BME280;7939;50.814;6.368;2023-02-19T13:19:22;100736.88;;;13.10;68.89
15678;BME280;7939;50.814;6.368;2023-02-19T13:21:57;100739.44;;;13.12;67.79
15678;BME280;7939;50.814;6.368;2023-02-19T13:24:58;100735.19;;;13.11;68.07